sensor_id;sensor_type;location;lat;lon;timestamp;P1;durP1;ratioP1;P2;durP2;ratioP2
39750;SDS011;37579;51.074;17.004;2023-08-06T00:00:24;2.22;;;1.33;;
39750;SDS011;37579;51.074;17.004;2023-08-06T00:02:50;1.52;;;1.10;;
39750;SDS011;37579;51.074;17.004;2023-08-06T00:05:16;1.67;;;1.20;;
39750;SDS011;37579;51.074;17.004;2023-08-06T00:07:49;2.63;;;1.40;;
39750;SDS011;37579;51.074;17.004;2023-08-06T00:10:16;1.80;;;1.10;;
39750;SDS011;37579;51.074;17.004;2023-08-06T00:12:42;2.75;;;1.40;;
39750;SDS011;37579;51.074;17.004;2023-08-06T00:15:09;1.67;;;1.15;;
39750;SDS011;37579;51.074;17.004;2023-08-06T00:17:35;1.45;;;1.08;;
39750;SDS011;37579;51.074;17.004;2023-08-06T00:20:01;1.75;;;1.20;;
39750;SDS011;37579;51.074;17.004;2023-08-06T00:22:31;2.55;;;1.40;;
39750;SDS011;37579;51.074;17.004;2023-08-06T00:24:57;1.20;;;1.00;;
39750;SDS011;37579;51.074;17.004;2023-08-06T00:27:23;2.50;;;1.33;;
39750;SDS011;37579;51.074;17.004;2023-08-06T00:29:49;1.88;;;1.05;;
39750;SDS011;37579;51.074;17.004;2023-08-06T00:32:15;2.75;;;1.10;;
39750;SDS011;37579;51.074;17.004;2023-08-06T00:34:41;4.20;;;0.95;;
39750;SDS011;37579;51.074;17.004;2023-08-06T00:37:07;1.92;;;0.90;;
39750;SDS011;37579;51.074;17.004;2023-08-06T00:39:33;1.80;;;0.98;;
39750;SDS011;37579;51.074;17.004;2023-08-06T00:41:58;1.50;;;0.98;;
39750;SDS011;37579;51.074;17.004;2023-08-06T00:44:24;1.85;;;1.10;;
39750;SDS011;37579;51.074;17.004;2023-08-06T00:46:50;1.65;;;1.00;;
39750;SDS011;37579;51.074;17.004;2023-08-06T00:49:16;1.63;;;1.15;;
39750;SDS011;37579;51.074;17.004;2023-08-06T00:51:42;2.17;;;1.13;;
39750;SDS011;37579;51.074;17.004;2023-08-06T00:54:08;1.48;;;0.98;;
39750;SDS011;37579;51.074;17.004;2023-08-06T00:56:35;2.00;;;1.20;;
39750;SDS011;37579;51.074;17.004;2023-08-06T00:59:02;1.25;;;0.80;;
39750;SDS011;37579;51.074;17.004;2023-08-06T01:01:29;1.80;;;0.93;;
39750;SDS011;37579;51.074;17.004;2023-08-06T01:03:55;1.20;;;1.00;;
39750;SDS011;37579;51.074;17.004;2023-08-06T01:06:23;1.52;;;1.13;;
39750;SDS011;37579;51.074;17.004;2023-08-06T01:09:21;1.88;;;1.02;;
39750;SDS011;37579;51.074;17.004;2023-08-06T01:12:18;1.05;;;0.75;;
39750;SDS011;37579;51.074;17.004;2023-08-06T01:14:59;3.00;;;1.00;;
39750;SDS011;37579;51.074;17.004;2023-08-06T01:17:30;1.65;;;0.90;;
39750;SDS011;37579;51.074;17.004;2023-08-06T01:19:57;3.00;;;1.35;;
39750;SDS011;37579;51.074;17.004;2023-08-06T01:22:22;2.42;;;1.00;;
39750;SDS011;37579;51.074;17.004;2023-08-06T01:24:48;1.60;;;0.80;;
39750;SDS011;37579;51.074;17.004;2023-08-06T01:27:22;1.67;;;0.82;;
39750;SDS011;37579;51.074;17.004;2023-08-06T01:29:57;1.52;;;1.00;;
39750;SDS011;37579;51.074;17.004;2023-08-06T01:32:34;1.27;;;0.70;;
39750;SDS011;37579;51.074;17.004;2023-08-06T01:35:04;1.10;;;1.00;;
39750;SDS011;37579;51.074;17.004;2023-08-06T01:37:30;1.27;;;1.00;;
39750;SDS011;37579;51.074;17.004;2023-08-06T01:39:57;1.25;;;1.00;;
39750;SDS011;37579;51.074;17.004;2023-08-06T01:42:23;1.52;;;0.82;;
39750;SDS011;37579;51.074;17.004;2023-08-06T01:44:49;1.08;;;0.80;;
39750;SDS011;37579;51.074;17.004;2023-08-06T01:47:15;1.00;;;0.82;;
39750;SDS011;37579;51.074;17.004;2023-08-06T01:49:41;0.88;;;0.80;;
39750;SDS011;37579;51.074;17.004;2023-08-06T01:52:07;1.20;;;0.80;;
39750;SDS011;37579;51.074;17.004;2023-08-06T01:54:33;1.33;;;0.73;;
39750;SDS011;37579;51.074;17.004;2023-08-06T01:56:58;1.95;;;0.60;;
39750;SDS011;37579;51.074;17.004;2023-08-06T01:59:24;1.13;;;0.63;;
39750;SDS011;37579;51.074;17.004;2023-08-06T02:01:50;1.52;;;0.70;;
39750;SDS011;37579;51.074;17.004;2023-08-06T02:04:16;1.10;;;0.65;;
39750;SDS011;37579;51.074;17.004;2023-08-06T02:06:41;1.35;;;0.68;;
39750;SDS011;37579;51.074;17.004;2023-08-06T02:09:07;1.00;;;0.60;;
39750;SDS011;37579;51.074;17.004;2023-08-06T02:11:35;1.92;;;0.70;;
39750;SDS011;37579;51.074;17.004;2023-08-06T02:14:00;1.55;;;0.80;;
39750;SDS011;37579;51.074;17.004;2023-08-06T02:16:26;0.77;;;0.60;;
39750;SDS011;37579;51.074;17.004;2023-08-06T02:18:52;1.63;;;0.47;;
39750;SDS011;37579;51.074;17.004;2023-08-06T02:21:18;1.63;;;0.70;;
39750;SDS011;37579;51.074;17.004;2023-08-06T02:23:44;0.93;;;0.63;;
39750;SDS011;37579;51.074;17.004;2023-08-06T02:26:10;0.90;;;0.60;;
39750;SDS011;37579;51.074;17.004;2023-08-06T02:28:35;1.25;;;0.90;;
39750;SDS011;37579;51.074;17.004;2023-08-06T02:31:01;1.25;;;0.85;;
39750;SDS011;37579;51.074;17.004;2023-08-06T02:33:27;0.80;;;0.60;;
39750;SDS011;37579;51.074;17.004;2023-08-06T02:36:01;1.10;;;0.80;;
39750;SDS011;37579;51.074;17.004;2023-08-06T02:38:28;0.80;;;0.70;;
39750;SDS011;37579;51.074;17.004;2023-08-06T02:40:55;0.77;;;0.60;;
39750;SDS011;37579;51.074;17.004;2023-08-06T02:43:22;1.70;;;0.75;;
39750;SDS011;37579;51.074;17.004;2023-08-06T02:45:49;1.00;;;0.60;;
39750;SDS011;37579;51.074;17.004;2023-08-06T02:48:14;0.70;;;0.50;;
39750;SDS011;37579;51.074;17.004;2023-08-06T02:50:41;0.93;;;0.70;;
39750;SDS011;37579;51.074;17.004;2023-08-06T02:53:07;0.80;;;0.50;;
39750;SDS011;37579;51.074;17.004;2023-08-06T02:55:34;1.40;;;0.60;;
39750;SDS011;37579;51.074;17.004;2023-08-06T02:58:02;0.70;;;0.50;;
39750;SDS011;37579;51.074;17.004;2023-08-06T03:00:33;0.63;;;0.40;;
39750;SDS011;37579;51.074;17.004;2023-08-06T03:03:01;0.93;;;0.57;;
39750;SDS011;37579;51.074;17.004;2023-08-06T03:05:40;1.00;;;0.60;;
39750;SDS011;37579;51.074;17.004;2023-08-06T03:08:05;0.70;;;0.50;;
39750;SDS011;37579;51.074;17.004;2023-08-06T03:10:33;0.60;;;0.40;;
39750;SDS011;37579;51.074;17.004;2023-08-06T03:13:02;0.52;;;0.43;;
39750;SDS011;37579;51.074;17.004;2023-08-06T03:15:28;0.45;;;0.32;;
39750;SDS011;37579;51.074;17.004;2023-08-06T03:17:55;1.42;;;0.60;;
39750;SDS011;37579;51.074;17.004;2023-08-06T03:20:21;1.08;;;0.45;;
39750;SDS011;37579;51.074;17.004;2023-08-06T03:22:47;0.80;;;0.50;;
39750;SDS011;37579;51.074;17.004;2023-08-06T03:25:13;0.93;;;0.50;;
39750;SDS011;37579;51.074;17.004;2023-08-06T03:27:42;0.70;;;0.60;;
39750;SDS011;37579;51.074;17.004;2023-08-06T03:30:10;0.52;;;0.35;;
39750;SDS011;37579;51.074;17.004;2023-08-06T03:32:37;0.73;;;0.50;;
39750;SDS011;37579;51.074;17.004;2023-08-06T03:35:04;1.35;;;0.50;;
39750;SDS011;37579;51.074;17.004;2023-08-06T03:37:31;0.60;;;0.40;;
39750;SDS011;37579;51.074;17.004;2023-08-06T03:39:56;0.93;;;0.55;;
39750;SDS011;37579;51.074;17.004;2023-08-06T03:42:22;0.50;;;0.40;;
39750;SDS011;37579;51.074;17.004;2023-08-06T03:44:48;0.50;;;0.32;;
39750;SDS011;37579;51.074;17.004;2023-08-06T03:47:14;0.93;;;0.50;;
39750;SDS011;37579;51.074;17.004;2023-08-06T03:49:39;0.40;;;0.40;;
39750;SDS011;37579;51.074;17.004;2023-08-06T03:52:07;0.80;;;0.38;;
39750;SDS011;37579;51.074;17.004;2023-08-06T03:54:33;0.30;;;0.30;;
39750;SDS011;37579;51.074;17.004;2023-08-06T03:56:58;0.63;;;0.40;;
39750;SDS011;37579;51.074;17.004;2023-08-06T03:59:24;0.65;;;0.50;;
39750;SDS011;37579;51.074;17.004;2023-08-06T04:01:50;0.80;;;0.50;;
39750;SDS011;37579;51.074;17.004;2023-08-06T04:04:16;0.50;;;0.40;;
39750;SDS011;37579;51.074;17.004;2023-08-06T04:06:41;0.50;;;0.38;;
39750;SDS011;37579;51.074;17.004;2023-08-06T04:09:07;0.50;;;0.30;;
39750;SDS011;37579;51.074;17.004;2023-08-06T04:11:33;0.60;;;0.30;;
39750;SDS011;37579;51.074;17.004;2023-08-06T04:13:59;0.60;;;0.43;;
39750;SDS011;37579;51.074;17.004;2023-08-06T04:16:24;1.08;;;0.47;;
39750;SDS011;37579;51.074;17.004;2023-08-06T04:18:51;0.50;;;0.30;;
39750;SDS011;37579;51.074;17.004;2023-08-06T04:21:18;0.40;;;0.30;;
39750;SDS011;37579;51.074;17.004;2023-08-06T04:23:45;1.35;;;0.40;;
39750;SDS011;37579;51.074;17.004;2023-08-06T04:26:11;0.55;;;0.38;;
39750;SDS011;37579;51.074;17.004;2023-08-06T04:28:37;0.20;;;0.20;;
39750;SDS011;37579;51.074;17.004;2023-08-06T04:31:03;0.57;;;0.20;;
39750;SDS011;37579;51.074;17.004;2023-08-06T04:33:31;0.80;;;0.60;;
39750;SDS011;37579;51.074;17.004;2023-08-06T04:36:00;0.50;;;0.30;;
39750;SDS011;37579;51.074;17.004;2023-08-06T04:38:26;0.65;;;0.30;;
39750;SDS011;37579;51.074;17.004;2023-08-06T04:40:53;0.30;;;0.30;;
39750;SDS011;37579;51.074;17.004;2023-08-06T04:43:20;0.47;;;0.30;;
39750;SDS011;37579;51.074;17.004;2023-08-06T04:45:47;0.35;;;0.25;;
39750;SDS011;37579;51.074;17.004;2023-08-06T04:48:14;1.52;;;0.40;;
39750;SDS011;37579;51.074;17.004;2023-08-06T04:50:46;0.30;;;0.30;;
39750;SDS011;37579;51.074;17.004;2023-08-06T04:53:12;0.28;;;0.20;;
39750;SDS011;37579;51.074;17.004;2023-08-06T04:55:38;0.60;;;0.38;;
39750;SDS011;37579;51.074;17.004;2023-08-06T04:58:04;0.38;;;0.30;;
39750;SDS011;37579;51.074;17.004;2023-08-06T05:00:31;0.35;;;0.30;;
39750;SDS011;37579;51.074;17.004;2023-08-06T05:02:59;0.43;;;0.40;;
39750;SDS011;37579;51.074;17.004;2023-08-06T05:05:25;0.30;;;0.25;;
39750;SDS011;37579;51.074;17.004;2023-08-06T05:07:51;0.30;;;0.30;;
39750;SDS011;37579;51.074;17.004;2023-08-06T05:10:19;0.40;;;0.30;;
39750;SDS011;37579;51.074;17.004;2023-08-06T05:12:44;0.50;;;0.20;;
39750;SDS011;37579;51.074;17.004;2023-08-06T05:15:10;0.30;;;0.28;;
39750;SDS011;37579;51.074;17.004;2023-08-06T05:17:36;0.35;;;0.32;;
39750;SDS011;37579;51.074;17.004;2023-08-06T05:20:01;0.50;;;0.20;;
39750;SDS011;37579;51.074;17.004;2023-08-06T05:22:28;0.22;;;0.17;;
39750;SDS011;37579;51.074;17.004;2023-08-06T05:24:53;0.20;;;0.20;;
39750;SDS011;37579;51.074;17.004;2023-08-06T05:27:19;0.80;;;0.22;;
39750;SDS011;37579;51.074;17.004;2023-08-06T05:29:45;0.60;;;0.30;;
39750;SDS011;37579;51.074;17.004;2023-08-06T05:32:11;0.28;;;0.20;;
39750;SDS011;37579;51.074;17.004;2023-08-06T05:34:37;0.73;;;0.30;;
39750;SDS011;37579;51.074;17.004;2023-08-06T05:37:03;0.63;;;0.30;;
39750;SDS011;37579;51.074;17.004;2023-08-06T05:39:29;0.57;;;0.20;;
39750;SDS011;37579;51.074;17.004;2023-08-06T05:41:54;0.30;;;0.20;;
39750;SDS011;37579;51.074;17.004;2023-08-06T05:44:21;0.20;;;0.20;;
39750;SDS011;37579;51.074;17.004;2023-08-06T05:46:47;0.32;;;0.20;;
39750;SDS011;37579;51.074;17.004;2023-08-06T05:49:14;0.20;;;0.20;;
39750;SDS011;37579;51.074;17.004;2023-08-06T05:51:41;0.22;;;0.20;;
39750;SDS011;37579;51.074;17.004;2023-08-06T05:54:07;0.25;;;0.20;;
39750;SDS011;37579;51.074;17.004;2023-08-06T05:56:33;0.40;;;0.20;;
39750;SDS011;37579;51.074;17.004;2023-08-06T05:58:59;0.22;;;0.17;;
39750;SDS011;37579;51.074;17.004;2023-08-06T06:01:24;0.43;;;0.20;;
39750;SDS011;37579;51.074;17.004;2023-08-06T06:03:50;0.43;;;0.20;;
39750;SDS011;37579;51.074;17.004;2023-08-06T06:06:16;0.32;;;0.20;;
39750;SDS011;37579;51.074;17.004;2023-08-06T06:08:43;0.47;;;0.20;;
39750;SDS011;37579;51.074;17.004;2023-08-06T06:11:09;0.20;;;0.20;;
39750;SDS011;37579;51.074;17.004;2023-08-06T06:13:35;0.30;;;0.30;;
39750;SDS011;37579;51.074;17.004;2023-08-06T06:16:01;0.57;;;0.30;;
39750;SDS011;37579;51.074;17.004;2023-08-06T06:18:27;0.20;;;0.10;;
39750;SDS011;37579;51.074;17.004;2023-08-06T06:20:52;0.50;;;0.30;;
39750;SDS011;37579;51.074;17.004;2023-08-06T06:23:18;1.20;;;0.20;;
39750;SDS011;37579;51.074;17.004;2023-08-06T06:25:50;0.38;;;0.20;;
39750;SDS011;37579;51.074;17.004;2023-08-06T06:28:19;0.13;;;0.13;;
39750;SDS011;37579;51.074;17.004;2023-08-06T06:30:45;0.45;;;0.30;;
39750;SDS011;37579;51.074;17.004;2023-08-06T06:33:11;0.25;;;0.20;;
39750;SDS011;37579;51.074;17.004;2023-08-06T06:35:36;0.38;;;0.20;;
39750;SDS011;37579;51.074;17.004;2023-08-06T06:38:02;0.20;;;0.20;;
39750;SDS011;37579;51.074;17.004;2023-08-06T06:40:28;0.40;;;0.30;;
39750;SDS011;37579;51.074;17.004;2023-08-06T06:42:54;0.20;;;0.20;;
39750;SDS011;37579;51.074;17.004;2023-08-06T06:45:20;0.10;;;0.10;;
39750;SDS011;37579;51.074;17.004;2023-08-06T06:47:45;0.30;;;0.20;;
39750;SDS011;37579;51.074;17.004;2023-08-06T06:50:11;0.52;;;0.10;;
39750;SDS011;37579;51.074;17.004;2023-08-06T06:52:37;0.20;;;0.10;;
39750;SDS011;37579;51.074;17.004;2023-08-06T06:55:03;0.20;;;0.20;;
39750;SDS011;37579;51.074;17.004;2023-08-06T06:57:29;0.70;;;0.30;;
39750;SDS011;37579;51.074;17.004;2023-08-06T06:59:55;0.20;;;0.20;;
39750;SDS011;37579;51.074;17.004;2023-08-06T07:02:21;0.30;;;0.10;;
39750;SDS011;37579;51.074;17.004;2023-08-06T07:04:46;0.10;;;0.10;;
39750;SDS011;37579;51.074;17.004;2023-08-06T07:07:12;0.10;;;0.10;;
39750;SDS011;37579;51.074;17.004;2023-08-06T07:09:38;0.10;;;0.10;;
39750;SDS011;37579;51.074;17.004;2023-08-06T07:12:04;0.20;;;0.20;;
39750;SDS011;37579;51.074;17.004;2023-08-06T07:14:30;0.73;;;0.17;;
39750;SDS011;37579;51.074;17.004;2023-08-06T07:16:56;0.17;;;0.17;;
39750;SDS011;37579;51.074;17.004;2023-08-06T07:19:21;0.10;;;0.10;;
39750;SDS011;37579;51.074;17.004;2023-08-06T07:21:48;0.30;;;0.20;;
39750;SDS011;37579;51.074;17.004;2023-08-06T07:24:14;0.75;;;0.20;;
39750;SDS011;37579;51.074;17.004;2023-08-06T07:26:39;0.10;;;0.10;;
39750;SDS011;37579;51.074;17.004;2023-08-06T07:29:05;0.43;;;0.20;;
39750;SDS011;37579;51.074;17.004;2023-08-06T07:31:31;0.30;;;0.20;;
39750;SDS011;37579;51.074;17.004;2023-08-06T07:33:57;0.30;;;0.20;;
39750;SDS011;37579;51.074;17.004;2023-08-06T07:36:23;0.10;;;0.10;;
39750;SDS011;37579;51.074;17.004;2023-08-06T07:38:48;0.10;;;0.10;;
39750;SDS011;37579;51.074;17.004;2023-08-06T07:41:20;0.32;;;0.20;;
39750;SDS011;37579;51.074;17.004;2023-08-06T07:43:47;0.40;;;0.13;;
39750;SDS011;37579;51.074;17.004;2023-08-06T07:46:13;0.20;;;0.15;;
39750;SDS011;37579;51.074;17.004;2023-08-06T07:48:39;0.30;;;0.20;;
39750;SDS011;37579;51.074;17.004;2023-08-06T07:51:05;0.40;;;0.10;;
39750;SDS011;37579;51.074;17.004;2023-08-06T07:53:30;0.20;;;0.10;;
39750;SDS011;37579;51.074;17.004;2023-08-06T07:55:56;0.20;;;0.10;;
39750;SDS011;37579;51.074;17.004;2023-08-06T07:58:24;0.10;;;0.10;;
39750;SDS011;37579;51.074;17.004;2023-08-06T08:00:51;0.20;;;0.17;;
39750;SDS011;37579;51.074;17.004;2023-08-06T08:03:17;0.15;;;0.10;;
39750;SDS011;37579;51.074;17.004;2023-08-06T08:05:43;0.10;;;0.10;;
39750;SDS011;37579;51.074;17.004;2023-08-06T08:08:09;0.20;;;0.20;;
39750;SDS011;37579;51.074;17.004;2023-08-06T08:10:35;0.40;;;0.10;;
39750;SDS011;37579;51.074;17.004;2023-08-06T08:13:03;0.32;;;0.10;;
39750;SDS011;37579;51.074;17.004;2023-08-06T08:15:29;1.05;;;0.10;;
39750;SDS011;37579;51.074;17.004;2023-08-06T08:17:55;0.13;;;0.10;;
39750;SDS011;37579;51.074;17.004;2023-08-06T08:20:21;0.28;;;0.10;;
39750;SDS011;37579;51.074;17.004;2023-08-06T08:22:47;0.40;;;0.20;;
39750;SDS011;37579;51.074;17.004;2023-08-06T08:25:13;0.10;;;0.10;;
39750;SDS011;37579;51.074;17.004;2023-08-06T08:27:40;0.28;;;0.10;;
39750;SDS011;37579;51.074;17.004;2023-08-06T08:30:06;0.10;;;0.10;;
39750;SDS011;37579;51.074;17.004;2023-08-06T08:32:32;0.10;;;0.10;;
39750;SDS011;37579;51.074;17.004;2023-08-06T08:34:58;0.60;;;0.20;;
39750;SDS011;37579;51.074;17.004;2023-08-06T08:37:24;0.47;;;0.10;;
39750;SDS011;37579;51.074;17.004;2023-08-06T08:39:49;0.22;;;0.20;;
39750;SDS011;37579;51.074;17.004;2023-08-06T08:42:15;0.10;;;0.10;;
39750;SDS011;37579;51.074;17.004;2023-08-06T08:44:44;0.35;;;0.10;;
39750;SDS011;37579;51.074;17.004;2023-08-06T08:47:10;0.50;;;0.10;;
39750;SDS011;37579;51.074;17.004;2023-08-06T08:49:37;0.20;;;0.10;;
39750;SDS011;37579;51.074;17.004;2023-08-06T08:52:04;0.35;;;0.10;;
39750;SDS011;37579;51.074;17.004;2023-08-06T08:54:35;0.70;;;0.20;;
39750;SDS011;37579;51.074;17.004;2023-08-06T08:57:04;0.25;;;0.22;;
39750;SDS011;37579;51.074;17.004;2023-08-06T08:59:31;0.28;;;0.10;;
39750;SDS011;37579;51.074;17.004;2023-08-06T09:01:58;1.38;;;0.13;;
39750;SDS011;37579;51.074;17.004;2023-08-06T09:04:26;0.57;;;0.10;;
39750;SDS011;37579;51.074;17.004;2023-08-06T09:06:56;1.35;;;0.10;;
39750;SDS011;37579;51.074;17.004;2023-08-06T09:09:31;0.77;;;0.10;;
39750;SDS011;37579;51.074;17.004;2023-08-06T09:12:02;0.75;;;0.10;;
39750;SDS011;37579;51.074;17.004;2023-08-06T09:14:36;0.20;;;0.10;;
39750;SDS011;37579;51.074;17.004;2023-08-06T09:17:02;2.25;;;0.20;;
39750;SDS011;37579;51.074;17.004;2023-08-06T09:19:29;0.30;;;0.10;;
39750;SDS011;37579;51.074;17.004;2023-08-06T09:21:55;0.43;;;0.20;;
39750;SDS011;37579;51.074;17.004;2023-08-06T09:24:22;1.58;;;0.73;;
39750;SDS011;37579;51.074;17.004;2023-08-06T09:26:48;1.17;;;0.10;;
39750;SDS011;37579;51.074;17.004;2023-08-06T09:29:13;3.22;;;0.35;;
39750;SDS011;37579;51.074;17.004;2023-08-06T09:31:43;0.32;;;0.15;;
39750;SDS011;37579;51.074;17.004;2023-08-06T09:34:16;0.70;;;0.30;;
39750;SDS011;37579;51.074;17.004;2023-08-06T09:36:47;1.33;;;0.20;;
39750;SDS011;37579;51.074;17.004;2023-08-06T09:39:16;0.80;;;0.23;;
39750;SDS011;37579;51.074;17.004;2023-08-06T09:41:43;0.50;;;0.10;;
39750;SDS011;37579;51.074;17.004;2023-08-06T09:44:18;0.90;;;0.10;;
39750;SDS011;37579;51.074;17.004;2023-08-06T09:46:48;0.63;;;0.20;;
39750;SDS011;37579;51.074;17.004;2023-08-06T09:49:19;1.17;;;0.10;;
39750;SDS011;37579;51.074;17.004;2023-08-06T09:51:46;1.33;;;0.20;;
39750;SDS011;37579;51.074;17.004;2023-08-06T09:54:16;1.27;;;0.50;;
39750;SDS011;37579;51.074;17.004;2023-08-06T09:56:43;3.88;;;0.40;;
39750;SDS011;37579;51.074;17.004;2023-08-06T09:59:09;1.50;;;0.20;;
39750;SDS011;37579;51.074;17.004;2023-08-06T10:01:36;1.25;;;0.30;;
39750;SDS011;37579;51.074;17.004;2023-08-06T10:04:03;2.97;;;0.40;;
39750;SDS011;37579;51.074;17.004;2023-08-06T10:06:33;3.70;;;0.40;;
39750;SDS011;37579;51.074;17.004;2023-08-06T10:09:03;1.05;;;0.30;;
39750;SDS011;37579;51.074;17.004;2023-08-06T10:11:30;1.27;;;0.35;;
39750;SDS011;37579;51.074;17.004;2023-08-06T10:14:10;1.25;;;0.30;;
39750;SDS011;37579;51.074;17.004;2023-08-06T10:16:40;1.13;;;0.40;;
39750;SDS011;37579;51.074;17.004;2023-08-06T10:19:07;1.20;;;0.43;;
39750;SDS011;37579;51.074;17.004;2023-08-06T10:21:35;2.30;;;0.75;;
39750;SDS011;37579;51.074;17.004;2023-08-06T10:24:03;1.20;;;0.43;;
39750;SDS011;37579;51.074;17.004;2023-08-06T10:26:35;1.23;;;0.30;;
39750;SDS011;37579;51.074;17.004;2023-08-06T10:29:01;1.58;;;0.38;;
39750;SDS011;37579;51.074;17.004;2023-08-06T10:32:03;0.82;;;0.30;;
39750;SDS011;37579;51.074;17.004;2023-08-06T10:37:25;1.23;;;0.50;;
39750;SDS011;37579;51.074;17.004;2023-08-06T10:40:02;3.10;;;0.50;;
39750;SDS011;37579;51.074;17.004;2023-08-06T10:42:31;1.27;;;0.57;;
39750;SDS011;37579;51.074;17.004;2023-08-06T10:45:12;3.05;;;0.40;;
39750;SDS011;37579;51.074;17.004;2023-08-06T10:47:43;4.05;;;0.52;;
39750;SDS011;37579;51.074;17.004;2023-08-06T10:50:16;2.63;;;0.60;;
39750;SDS011;37579;51.074;17.004;2023-08-06T10:52:43;1.65;;;0.43;;
39750;SDS011;37579;51.074;17.004;2023-08-06T10:55:10;1.20;;;0.60;;
39750;SDS011;37579;51.074;17.004;2023-08-06T10:57:36;1.17;;;0.60;;
39750;SDS011;37579;51.074;17.004;2023-08-06T11:00:04;1.70;;;0.32;;
39750;SDS011;37579;51.074;17.004;2023-08-06T11:02:34;2.00;;;0.40;;
39750;SDS011;37579;51.074;17.004;2023-08-06T11:05:07;1.20;;;0.52;;
39750;SDS011;37579;51.074;17.004;2023-08-06T11:07:37;2.67;;;0.35;;
39750;SDS011;37579;51.074;17.004;2023-08-06T11:12:30;1.67;;;0.43;;
39750;SDS011;37579;51.074;17.004;2023-08-06T11:18:37;1.67;;;0.50;;
39750;SDS011;37579;51.074;17.004;2023-08-06T11:21:04;1.42;;;0.40;;
39750;SDS011;37579;51.074;17.004;2023-08-06T11:23:45;2.58;;;0.40;;
39750;SDS011;37579;51.074;17.004;2023-08-06T11:26:38;2.10;;;0.60;;
39750;SDS011;37579;51.074;17.004;2023-08-06T11:29:05;0.80;;;0.30;;
39750;SDS011;37579;51.074;17.004;2023-08-06T11:31:31;2.08;;;0.30;;
39750;SDS011;37579;51.074;17.004;2023-08-06T11:33:57;2.83;;;0.40;;
39750;SDS011;37579;51.074;17.004;2023-08-06T11:36:32;1.67;;;0.47;;
39750;SDS011;37579;51.074;17.004;2023-08-06T11:38:59;1.35;;;0.35;;
39750;SDS011;37579;51.074;17.004;2023-08-06T11:41:27;5.03;;;0.50;;
39750;SDS011;37579;51.074;17.004;2023-08-06T11:43:54;1.45;;;0.30;;
39750;SDS011;37579;51.074;17.004;2023-08-06T11:46:20;1.75;;;0.38;;
39750;SDS011;37579;51.074;17.004;2023-08-06T11:48:55;1.48;;;0.40;;
39750;SDS011;37579;51.074;17.004;2023-08-06T11:51:25;0.50;;;0.32;;
39750;SDS011;37579;51.074;17.004;2023-08-06T11:53:57;1.33;;;0.28;;
39750;SDS011;37579;51.074;17.004;2023-08-06T11:56:24;0.30;;;0.20;;
39750;SDS011;37579;51.074;17.004;2023-08-06T11:58:56;1.02;;;0.40;;
39750;SDS011;37579;51.074;17.004;2023-08-06T12:01:22;1.35;;;0.22;;
39750;SDS011;37579;51.074;17.004;2023-08-06T12:03:48;1.38;;;0.43;;
39750;SDS011;37579;51.074;17.004;2023-08-06T12:06:13;0.55;;;0.30;;
39750;SDS011;37579;51.074;17.004;2023-08-06T12:08:39;1.38;;;0.40;;
39750;SDS011;37579;51.074;17.004;2023-08-06T12:11:07;0.50;;;0.30;;
39750;SDS011;37579;51.074;17.004;2023-08-06T12:13:34;1.65;;;0.65;;
39750;SDS011;37579;51.074;17.004;2023-08-06T12:16:00;2.28;;;0.43;;
39750;SDS011;37579;51.074;17.004;2023-08-06T12:18:25;1.60;;;0.25;;
39750;SDS011;37579;51.074;17.004;2023-08-06T12:20:51;1.25;;;0.40;;
39750;SDS011;37579;51.074;17.004;2023-08-06T12:23:17;2.28;;;0.30;;
39750;SDS011;37579;51.074;17.004;2023-08-06T12:25:43;0.60;;;0.30;;
39750;SDS011;37579;51.074;17.004;2023-08-06T12:28:10;1.33;;;0.30;;
39750;SDS011;37579;51.074;17.004;2023-08-06T12:30:35;2.35;;;0.85;;
39750;SDS011;37579;51.074;17.004;2023-08-06T12:33:01;1.00;;;0.30;;
39750;SDS011;37579;51.074;17.004;2023-08-06T12:35:27;1.65;;;0.38;;
39750;SDS011;37579;51.074;17.004;2023-08-06T12:37:53;0.95;;;0.30;;
39750;SDS011;37579;51.074;17.004;2023-08-06T12:40:20;0.50;;;0.20;;
39750;SDS011;37579;51.074;17.004;2023-08-06T12:42:46;1.63;;;0.35;;
39750;SDS011;37579;51.074;17.004;2023-08-06T12:45:12;2.60;;;0.40;;
39750;SDS011;37579;51.074;17.004;2023-08-06T12:47:38;2.30;;;0.20;;
39750;SDS011;37579;51.074;17.004;2023-08-06T12:50:03;2.25;;;0.50;;
39750;SDS011;37579;51.074;17.004;2023-08-06T12:59:27;3.65;;;1.23;;
39750;SDS011;37579;51.074;17.004;2023-08-06T13:01:53;5.13;;;2.08;;
39750;SDS011;37579;51.074;17.004;2023-08-06T13:04:19;7.57;;;3.83;;
39750;SDS011;37579;51.074;17.004;2023-08-06T13:06:45;6.55;;;3.22;;
39750;SDS011;37579;51.074;17.004;2023-08-06T13:09:12;8.00;;;4.95;;
39750;SDS011;37579;51.074;17.004;2023-08-06T13:11:41;9.13;;;6.22;;
39750;SDS011;37579;51.074;17.004;2023-08-06T13:14:10;9.73;;;6.15;;
39750;SDS011;37579;51.074;17.004;2023-08-06T13:16:38;8.35;;;5.07;;
39750;SDS011;37579;51.074;17.004;2023-08-06T13:19:05;8.55;;;5.53;;
39750;SDS011;37579;51.074;17.004;2023-08-06T13:21:35;8.32;;;5.13;;
39750;SDS011;37579;51.074;17.004;2023-08-06T13:24:17;6.53;;;5.03;;
39750;SDS011;37579;51.074;17.004;2023-08-06T13:26:43;7.43;;;4.75;;
39750;SDS011;37579;51.074;17.004;2023-08-06T13:29:08;6.38;;;4.65;;
39750;SDS011;37579;51.074;17.004;2023-08-06T13:31:36;6.93;;;4.70;;
39750;SDS011;37579;51.074;17.004;2023-08-06T13:34:02;6.13;;;4.22;;
39750;SDS011;37579;51.074;17.004;2023-08-06T13:36:28;6.60;;;4.32;;
39750;SDS011;37579;51.074;17.004;2023-08-06T13:38:55;6.38;;;4.40;;
39750;SDS011;37579;51.074;17.004;2023-08-06T13:41:21;5.95;;;4.22;;
39750;SDS011;37579;51.074;17.004;2023-08-06T13:43:47;6.00;;;4.00;;
39750;SDS011;37579;51.074;17.004;2023-08-06T13:46:14;5.15;;;3.45;;
39750;SDS011;37579;51.074;17.004;2023-08-06T13:48:45;4.68;;;3.65;;
39750;SDS011;37579;51.074;17.004;2023-08-06T13:51:12;9.05;;;4.00;;
39750;SDS011;37579;51.074;17.004;2023-08-06T13:53:38;6.07;;;4.35;;
39750;SDS011;37579;51.074;17.004;2023-08-06T13:56:05;5.40;;;3.50;;
39750;SDS011;37579;51.074;17.004;2023-08-06T13:58:32;8.07;;;3.75;;
39750;SDS011;37579;51.074;17.004;2023-08-06T14:00:58;9.63;;;3.92;;
39750;SDS011;37579;51.074;17.004;2023-08-06T14:03:24;3.33;;;2.80;;
39750;SDS011;37579;51.074;17.004;2023-08-06T14:05:50;4.75;;;3.22;;
39750;SDS011;37579;51.074;17.004;2023-08-06T14:08:16;5.57;;;3.35;;
39750;SDS011;37579;51.074;17.004;2023-08-06T14:10:45;8.15;;;3.28;;
39750;SDS011;37579;51.074;17.004;2023-08-06T14:13:11;6.45;;;3.15;;
39750;SDS011;37579;51.074;17.004;2023-08-06T14:15:37;4.18;;;3.20;;
39750;SDS011;37579;51.074;17.004;2023-08-06T14:18:07;4.63;;;2.92;;
39750;SDS011;37579;51.074;17.004;2023-08-06T14:20:36;5.90;;;2.92;;
39750;SDS011;37579;51.074;17.004;2023-08-06T14:23:02;4.30;;;2.70;;
39750;SDS011;37579;51.074;17.004;2023-08-06T14:25:32;4.75;;;2.40;;
39750;SDS011;37579;51.074;17.004;2023-08-06T14:27:58;5.32;;;2.00;;
39750;SDS011;37579;51.074;17.004;2023-08-06T14:30:24;4.40;;;2.20;;
39750;SDS011;37579;51.074;17.004;2023-08-06T14:32:50;4.35;;;2.00;;
39750;SDS011;37579;51.074;17.004;2023-08-06T14:35:16;3.10;;;1.90;;
39750;SDS011;37579;51.074;17.004;2023-08-06T14:37:42;5.25;;;2.00;;
39750;SDS011;37579;51.074;17.004;2023-08-06T14:40:08;3.38;;;1.40;;
39750;SDS011;37579;51.074;17.004;2023-08-06T14:42:35;3.55;;;1.40;;
39750;SDS011;37579;51.074;17.004;2023-08-06T14:45:00;3.90;;;1.30;;
39750;SDS011;37579;51.074;17.004;2023-08-06T14:47:27;2.40;;;1.10;;
39750;SDS011;37579;51.074;17.004;2023-08-06T14:49:52;4.70;;;1.50;;